sensor_id;sensor_type;location;lat;lon;timestamp;temperature;humidity
67529;DHT22;54366;51.980;5.856;2023-04-25T00:02:09;8.50;79.50
67529;DHT22;54366;51.980;5.856;2023-04-25T00:04:42;8.50;79.50
67529;DHT22;54366;51.980;5.856;2023-04-25T00:07:15;8.40;79.50
67529;DHT22;54366;51.980;5.856;2023-04-25T00:09:42;8.40;79.50
67529;DHT22;54366;51.980;5.856;2023-04-25T00:12:21;8.30;79.30
67529;DHT22;54366;51.980;5.856;2023-04-25T00:14:55;8.30;79.40
67529;DHT22;54366;51.980;5.856;2023-04-25T00:17:32;8.40;79.40
67529;DHT22;54366;51.980;5.856;2023-04-25T00:19:58;8.40;79.40
67529;DHT22;54366;51.980;5.856;2023-04-25T00:22:32;8.40;79.50
67529;DHT22;54366;51.980;5.856;2023-04-25T00:25:07;8.40;79.50
67529;DHT22;54366;51.980;5.856;2023-04-25T00:27:40;8.30;79.40
67529;DHT22;54366;51.980;5.856;2023-04-25T00:30:14;8.40;79.60
67529;DHT22;54366;51.980;5.856;2023-04-25T00:32:47;8.30;79.70
67529;DHT22;54366;51.980;5.856;2023-04-25T00:35:14;8.40;79.60
67529;DHT22;54366;51.980;5.856;2023-04-25T00:37:48;8.30;79.40
67529;DHT22;54366;51.980;5.856;2023-04-25T00:40:20;8.30;79.50
67529;DHT22;54366;51.980;5.856;2023-04-25T00:42:53;8.30;79.50
67529;DHT22;54366;51.980;5.856;2023-04-25T00:45:28;8.40;79.70
67529;DHT22;54366;51.980;5.856;2023-04-25T00:48:04;8.40;79.70
67529;DHT22;54366;51.980;5.856;2023-04-25T00:50:38;8.40;79.90
67529;DHT22;54366;51.980;5.856;2023-04-25T00:53:10;8.40;79.70
67529;DHT22;54366;51.980;5.856;2023-04-25T00:55:37;8.40;79.50
67529;DHT22;54366;51.980;5.856;2023-04-25T00:58:09;8.40;79.50
67529;DHT22;54366;51.980;5.856;2023-04-25T01:00:36;8.40;79.50
67529;DHT22;54366;51.980;5.856;2023-04-25T01:03:09;8.40;79.50
67529;DHT22;54366;51.980;5.856;2023-04-25T01:05:43;8.40;79.50
67529;DHT22;54366;51.980;5.856;2023-04-25T01:08:10;8.40;79.20
67529;DHT22;54366;51.980;5.856;2023-04-25T01:10:48;8.40;79.40
67529;DHT22;54366;51.980;5.856;2023-04-25T01:13:28;8.30;79.30
67529;DHT22;54366;51.980;5.856;2023-04-25T01:15:55;8.30;79.30
67529;DHT22;54366;51.980;5.856;2023-04-25T01:18:27;8.30;79.30
67529;DHT22;54366;51.980;5.856;2023-04-25T01:21:18;8.30;79.20
67529;DHT22;54366;51.980;5.856;2023-04-25T01:23:52;8.30;79.20
67529;DHT22;54366;51.980;5.856;2023-04-25T01:26:26;8.30;79.20
67529;DHT22;54366;51.980;5.856;2023-04-25T01:28:59;8.20;79.10
67529;DHT22;54366;51.980;5.856;2023-04-25T01:31:33;8.20;79.20
67529;DHT22;54366;51.980;5.856;2023-04-25T01:34:08;8.20;79.10
67529;DHT22;54366;51.980;5.856;2023-04-25T01:36:41;8.20;78.80
67529;DHT22;54366;51.980;5.856;2023-04-25T01:39:15;8.30;79.00
67529;DHT22;54366;51.980;5.856;2023-04-25T01:41:49;8.20;78.90
67529;DHT22;54366;51.980;5.856;2023-04-25T01:44:21;8.20;78.70
67529;DHT22;54366;51.980;5.856;2023-04-25T01:46:54;8.20;78.60
67529;DHT22;54366;51.980;5.856;2023-04-25T01:49:28;8.20;78.70
67529;DHT22;54366;51.980;5.856;2023-04-25T01:51:54;8.20;78.50
67529;DHT22;54366;51.980;5.856;2023-04-25T01:54:27;8.20;78.30
67529;DHT22;54366;51.980;5.856;2023-04-25T01:57:00;8.20;78.40
67529;DHT22;54366;51.980;5.856;2023-04-25T01:59:36;8.20;78.50
67529;DHT22;54366;51.980;5.856;2023-04-25T02:02:28;8.10;78.30
67529;DHT22;54366;51.980;5.856;2023-04-25T02:05:01;8.20;78.50
67529;DHT22;54366;51.980;5.856;2023-04-25T02:07:38;8.10;78.60
67529;DHT22;54366;51.980;5.856;2023-04-25T02:10:17;8.10;78.60
67529;DHT22;54366;51.980;5.856;2023-04-25T02:13:08;8.10;78.40
67529;DHT22;54366;51.980;5.856;2023-04-25T02:16:10;8.10;78.40
67529;DHT22;54366;51.980;5.856;2023-04-25T02:18:42;8.10;78.30
67529;DHT22;54366;51.980;5.856;2023-04-25T02:21:10;8.10;78.10
67529;DHT22;54366;51.980;5.856;2023-04-25T02:23:44;8.10;78.00
67529;DHT22;54366;51.980;5.856;2023-04-25T02:26:21;8.10;77.90
67529;DHT22;54366;51.980;5.856;2023-04-25T02:28:57;8.10;78.00
67529;DHT22;54366;51.980;5.856;2023-04-25T02:31:30;8.10;77.90
67529;DHT22;54366;51.980;5.856;2023-04-25T02:33:57;8.10;77.70
67529;DHT22;54366;51.980;5.856;2023-04-25T02:36:30;8.10;77.70
67529;DHT22;54366;51.980;5.856;2023-04-25T02:39:06;8.10;77.70
67529;DHT22;54366;51.980;5.856;2023-04-25T02:41:32;8.00;77.30
67529;DHT22;54366;51.980;5.856;2023-04-25T02:44:05;8.10;77.20
67529;DHT22;54366;51.980;5.856;2023-04-25T02:46:31;8.00;77.20
67529;DHT22;54366;51.980;5.856;2023-04-25T02:49:04;8.00;77.20
67529;DHT22;54366;51.980;5.856;2023-04-25T02:51:37;8.00;77.30
67529;DHT22;54366;51.980;5.856;2023-04-25T02:54:04;7.90;77.10
67529;DHT22;54366;51.980;5.856;2023-04-25T02:56:41;7.90;77.10
67529;DHT22;54366;51.980;5.856;2023-04-25T02:59:20;7.80;77.20
67529;DHT22;54366;51.980;5.856;2023-04-25T03:01:52;7.80;77.30
67529;DHT22;54366;51.980;5.856;2023-04-25T03:04:25;7.80;77.30
67529;DHT22;54366;51.980;5.856;2023-04-25T03:06:52;7.80;77.40
67529;DHT22;54366;51.980;5.856;2023-04-25T03:09:25;7.70;77.50
67529;DHT22;54366;51.980;5.856;2023-04-25T03:12:12;7.70;77.60
67529;DHT22;54366;51.980;5.856;2023-04-25T03:14:44;7.70;77.60
67529;DHT22;54366;51.980;5.856;2023-04-25T03:17:17;7.70;77.40
67529;DHT22;54366;51.980;5.856;2023-04-25T03:19:50;7.60;77.30
67529;DHT22;54366;51.980;5.856;2023-04-25T03:22:24;7.60;77.30
67529;DHT22;54366;51.980;5.856;2023-04-25T03:24:56;7.60;78.10
67529;DHT22;54366;51.980;5.856;2023-04-25T03:27:29;7.50;77.40
67529;DHT22;54366;51.980;5.856;2023-04-25T03:30:03;7.50;77.40
67529;DHT22;54366;51.980;5.856;2023-04-25T03:32:36;7.50;77.20
67529;DHT22;54366;51.980;5.856;2023-04-25T03:35:03;7.50;77.10
67529;DHT22;54366;51.980;5.856;2023-04-25T03:37:36;7.40;77.30
67529;DHT22;54366;51.980;5.856;2023-04-25T03:40:03;7.40;77.40
67529;DHT22;54366;51.980;5.856;2023-04-25T03:43:01;7.40;77.40
67529;DHT22;54366;51.980;5.856;2023-04-25T03:45:36;7.30;77.50
67529;DHT22;54366;51.980;5.856;2023-04-25T03:48:02;7.30;77.70
67529;DHT22;54366;51.980;5.856;2023-04-25T03:50:35;7.30;77.70
67529;DHT22;54366;51.980;5.856;2023-04-25T03:53:08;7.30;77.60
67529;DHT22;54366;51.980;5.856;2023-04-25T03:55:54;7.30;77.70
67529;DHT22;54366;51.980;5.856;2023-04-25T03:58:31;7.30;77.70
67529;DHT22;54366;51.980;5.856;2023-04-25T04:00:57;7.30;77.70
67529;DHT22;54366;51.980;5.856;2023-04-25T04:03:32;7.30;77.50
67529;DHT22;54366;51.980;5.856;2023-04-25T04:06:05;7.30;77.40
67529;DHT22;54366;51.980;5.856;2023-04-25T04:08:41;7.30;77.20
67529;DHT22;54366;51.980;5.856;2023-04-25T04:11:14;7.30;77.20
67529;DHT22;54366;51.980;5.856;2023-04-25T04:13:55;7.20;77.30
67529;DHT22;54366;51.980;5.856;2023-04-25T04:16:29;7.20;77.20
67529;DHT22;54366;51.980;5.856;2023-04-25T04:19:02;7.20;77.20
67529;DHT22;54366;51.980;5.856;2023-04-25T04:21:35;7.20;77.30
67529;DHT22;54366;51.980;5.856;2023-04-25T04:24:09;7.20;77.30
67529;DHT22;54366;51.980;5.856;2023-04-25T04:26:50;7.10;77.10
67529;DHT22;54366;51.980;5.856;2023-04-25T04:29:32;7.10;76.90
67529;DHT22;54366;51.980;5.856;2023-04-25T04:32:15;7.10;77.00
67529;DHT22;54366;51.980;5.856;2023-04-25T04:34:50;7.00;77.20
67529;DHT22;54366;51.980;5.856;2023-04-25T04:37:18;7.00;77.10
67529;DHT22;54366;51.980;5.856;2023-04-25T04:39:52;7.00;77.20
67529;DHT22;54366;51.980;5.856;2023-04-25T04:42:42;7.00;77.10
67529;DHT22;54366;51.980;5.856;2023-04-25T04:45:34;7.00;77.10
67529;DHT22;54366;51.980;5.856;2023-04-25T04:48:18;7.00;77.20
67529;DHT22;54366;51.980;5.856;2023-04-25T04:51:13;7.00;77.20
67529;DHT22;54366;51.980;5.856;2023-04-25T04:54:05;7.00;77.20
67529;DHT22;54366;51.980;5.856;2023-04-25T04:57:03;7.00;77.20
67529;DHT22;54366;51.980;5.856;2023-04-25T04:59:58;6.90;77.20
67529;DHT22;54366;51.980;5.856;2023-04-25T05:03:06;6.90;77.40
67529;DHT22;54366;51.980;5.856;2023-04-25T05:05:57;7.00;77.40
67529;DHT22;54366;51.980;5.856;2023-04-25T05:08:49;7.00;77.30
67529;DHT22;54366;51.980;5.856;2023-04-25T05:11:46;7.00;76.80
67529;DHT22;54366;51.980;5.856;2023-04-25T05:14:29;7.00;76.60
67529;DHT22;54366;51.980;5.856;2023-04-25T05:17:16;7.00;76.60
67529;DHT22;54366;51.980;5.856;2023-04-25T05:20:15;7.00;76.60
67529;DHT22;54366;51.980;5.856;2023-04-25T05:23:07;7.00;76.60
67529;DHT22;54366;51.980;5.856;2023-04-25T05:26:00;7.00;76.60
67529;DHT22;54366;51.980;5.856;2023-04-25T05:29:02;7.00;76.60
67529;DHT22;54366;51.980;5.856;2023-04-25T05:31:55;7.10;76.70
67529;DHT22;54366;51.980;5.856;2023-04-25T05:34:29;7.00;76.90
67529;DHT22;54366;51.980;5.856;2023-04-25T05:37:05;7.10;77.50
67529;DHT22;54366;51.980;5.856;2023-04-25T05:39:51;7.10;77.00
67529;DHT22;54366;51.980;5.856;2023-04-25T05:42:40;7.00;76.70
67529;DHT22;54366;51.980;5.856;2023-04-25T05:45:32;7.10;76.90
67529;DHT22;54366;51.980;5.856;2023-04-25T05:48:13;7.00;76.90
67529;DHT22;54366;51.980;5.856;2023-04-25T05:50:58;7.10;77.00
67529;DHT22;54366;51.980;5.856;2023-04-25T05:53:54;7.10;77.10
67529;DHT22;54366;51.980;5.856;2023-04-25T05:56:26;7.20;77.10
67529;DHT22;54366;51.980;5.856;2023-04-25T05:59:00;7.20;77.30
67529;DHT22;54366;51.980;5.856;2023-04-25T06:01:33;7.10;76.70
67529;DHT22;54366;51.980;5.856;2023-04-25T06:04:06;7.10;76.90
67529;DHT22;54366;51.980;5.856;2023-04-25T06:06:39;7.20;77.40
67529;DHT22;54366;51.980;5.856;2023-04-25T06:09:06;7.20;77.00
67529;DHT22;54366;51.980;5.856;2023-04-25T06:11:38;7.30;77.10
67529;DHT22;54366;51.980;5.856;2023-04-25T06:14:11;7.30;76.80
67529;DHT22;54366;51.980;5.856;2023-04-25T06:16:51;7.30;76.70
67529;DHT22;54366;51.980;5.856;2023-04-25T06:19:26;7.40;76.80
67529;DHT22;54366;51.980;5.856;2023-04-25T06:21:53;7.40;76.70
67529;DHT22;54366;51.980;5.856;2023-04-25T06:24:26;7.40;76.30
67529;DHT22;54366;51.980;5.856;2023-04-25T06:26:59;7.40;76.40
67529;DHT22;54366;51.980;5.856;2023-04-25T06:29:32;7.50;76.60
67529;DHT22;54366;51.980;5.856;2023-04-25T06:32:05;7.60;76.60
67529;DHT22;54366;51.980;5.856;2023-04-25T06:34:38;7.70;76.70
67529;DHT22;54366;51.980;5.856;2023-04-25T06:37:11;7.70;76.90
67529;DHT22;54366;51.980;5.856;2023-04-25T06:39:38;7.80;76.80
67529;DHT22;54366;51.980;5.856;2023-04-25T06:42:11;7.90;76.90
67529;DHT22;54366;51.980;5.856;2023-04-25T06:44:46;8.00;76.60
67529;DHT22;54366;51.980;5.856;2023-04-25T06:47:19;8.10;76.60
67529;DHT22;54366;51.980;5.856;2023-04-25T06:49:53;8.10;76.30
67529;DHT22;54366;51.980;5.856;2023-04-25T06:52:25;8.20;75.70
67529;DHT22;54366;51.980;5.856;2023-04-25T06:54:53;8.20;75.40
67529;DHT22;54366;51.980;5.856;2023-04-25T06:57:57;8.20;75.50
67529;DHT22;54366;51.980;5.856;2023-04-25T07:01:02;8.30;75.70
67529;DHT22;54366;51.980;5.856;2023-04-25T07:03:36;8.30;75.40
67529;DHT22;54366;51.980;5.856;2023-04-25T07:06:08;8.30;75.20
67529;DHT22;54366;51.980;5.856;2023-04-25T07:08:41;8.40;75.30
67529;DHT22;54366;51.980;5.856;2023-04-25T07:11:21;8.40;74.00
67529;DHT22;54366;51.980;5.856;2023-04-25T07:13:53;8.40;74.20
67529;DHT22;54366;51.980;5.856;2023-04-25T07:16:34;8.50;74.20
67529;DHT22;54366;51.980;5.856;2023-04-25T07:19:06;8.50;74.10
67529;DHT22;54366;51.980;5.856;2023-04-25T07:21:39;8.60;74.30
67529;DHT22;54366;51.980;5.856;2023-04-25T07:24:06;8.80;73.60
67529;DHT22;54366;51.980;5.856;2023-04-25T07:26:44;8.90;72.20
67529;DHT22;54366;51.980;5.856;2023-04-25T07:29:45;8.90;71.30
67529;DHT22;54366;51.980;5.856;2023-04-25T07:32:18;9.10;71.90
67529;DHT22;54366;51.980;5.856;2023-04-25T07:34:51;9.20;71.70
67529;DHT22;54366;51.980;5.856;2023-04-25T07:37:18;9.40;70.60
67529;DHT22;54366;51.980;5.856;2023-04-25T07:40:06;9.50;71.00
67529;DHT22;54366;51.980;5.856;2023-04-25T07:42:45;9.50;68.60
67529;DHT22;54366;51.980;5.856;2023-04-25T07:45:32;9.60;68.10
67529;DHT22;54366;51.980;5.856;2023-04-25T07:48:05;9.60;66.00
67529;DHT22;54366;51.980;5.856;2023-04-25T07:50:40;9.50;64.90
67529;DHT22;54366;51.980;5.856;2023-04-25T07:53:07;9.50;66.30
67529;DHT22;54366;51.980;5.856;2023-04-25T07:55:46;9.50;67.30
67529;DHT22;54366;51.980;5.856;2023-04-25T07:58:21;9.60;67.30
67529;DHT22;54366;51.980;5.856;2023-04-25T08:01:01;9.60;66.20
67529;DHT22;54366;51.980;5.856;2023-04-25T08:03:56;9.70;67.20
67529;DHT22;54366;51.980;5.856;2023-04-25T08:06:47;9.80;66.10
67529;DHT22;54366;51.980;5.856;2023-04-25T08:09:24;9.80;63.70
67529;DHT22;54366;51.980;5.856;2023-04-25T08:12:04;9.70;64.00
67529;DHT22;54366;51.980;5.856;2023-04-25T08:14:44;9.80;63.40
67529;DHT22;54366;51.980;5.856;2023-04-25T08:17:11;9.80;62.50
67529;DHT22;54366;51.980;5.856;2023-04-25T08:19:45;10.00;63.40
67529;DHT22;54366;51.980;5.856;2023-04-25T08:22:24;10.00;60.40
67529;DHT22;54366;51.980;5.856;2023-04-25T08:25:28;10.20;61.30
67529;DHT22;54366;51.980;5.856;2023-04-25T08:28:00;10.30;58.90
67529;DHT22;54366;51.980;5.856;2023-04-25T08:30:37;10.50;59.60
67529;DHT22;54366;51.980;5.856;2023-04-25T08:33:13;10.80;58.10
67529;DHT22;54366;51.980;5.856;2023-04-25T08:36:04;10.90;56.90
67529;DHT22;54366;51.980;5.856;2023-04-25T08:38:37;11.00;55.70
67529;DHT22;54366;51.980;5.856;2023-04-25T08:41:25;10.90;56.60
67529;DHT22;54366;51.980;5.856;2023-04-25T08:43:59;10.80;56.10
67529;DHT22;54366;51.980;5.856;2023-04-25T08:46:41;10.60;56.50
67529;DHT22;54366;51.980;5.856;2023-04-25T08:49:20;10.60;58.40
67529;DHT22;54366;51.980;5.856;2023-04-25T08:51:54;10.60;56.40
67529;DHT22;54366;51.980;5.856;2023-04-25T08:54:32;10.50;56.50
67529;DHT22;54366;51.980;5.856;2023-04-25T08:57:06;10.40;56.80
67529;DHT22;54366;51.980;5.856;2023-04-25T08:59:40;10.30;57.50
67529;DHT22;54366;51.980;5.856;2023-04-25T09:02:17;10.30;58.30
67529;DHT22;54366;51.980;5.856;2023-04-25T09:04:53;10.30;55.60
67529;DHT22;54366;51.980;5.856;2023-04-25T09:07:21;10.20;55.70
67529;DHT22;54366;51.980;5.856;2023-04-25T09:09:54;10.00;56.20
67529;DHT22;54366;51.980;5.856;2023-04-25T09:12:35;10.00;57.00
67529;DHT22;54366;51.980;5.856;2023-04-25T09:15:10;9.80;58.00
67529;DHT22;54366;51.980;5.856;2023-04-25T09:17:59;9.70;60.00
67529;DHT22;54366;51.980;5.856;2023-04-25T09:20:43;9.70;60.80
67529;DHT22;54366;51.980;5.856;2023-04-25T09:23:20;9.80;60.70
67529;DHT22;54366;51.980;5.856;2023-04-25T09:25:55;9.90;60.30
67529;DHT22;54366;51.980;5.856;2023-04-25T09:28:29;9.90;57.70
67529;DHT22;54366;51.980;5.856;2023-04-25T09:30:56;9.80;57.30
67529;DHT22;54366;51.980;5.856;2023-04-25T09:33:37;9.80;58.10
67529;DHT22;54366;51.980;5.856;2023-04-25T09:36:11;9.80;56.90
67529;DHT22;54366;51.980;5.856;2023-04-25T09:39:12;9.90;58.50
67529;DHT22;54366;51.980;5.856;2023-04-25T09:41:56;10.00;57.30
67529;DHT22;54366;51.980;5.856;2023-04-25T09:44:31;10.20;57.60
67529;DHT22;54366;51.980;5.856;2023-04-25T09:47:03;10.60;57.30
67529;DHT22;54366;51.980;5.856;2023-04-25T09:49:39;11.00;57.20
67529;DHT22;54366;51.980;5.856;2023-04-25T09:52:21;11.40;53.70
67529;DHT22;54366;51.980;5.856;2023-04-25T09:55:09;11.70;53.10
67529;DHT22;54366;51.980;5.856;2023-04-25T09:57:45;11.90;51.90
67529;DHT22;54366;51.980;5.856;2023-04-25T10:00:23;12.10;52.40
67529;DHT22;54366;51.980;5.856;2023-04-25T10:02:57;12.50;50.20
67529;DHT22;54366;51.980;5.856;2023-04-25T10:05:58;12.60;49.00
67529;DHT22;54366;51.980;5.856;2023-04-25T10:08:33;12.70;47.30
67529;DHT22;54366;51.980;5.856;2023-04-25T10:11:04;13.00;48.30
67529;DHT22;54366;51.980;5.856;2023-04-25T10:13:37;13.00;48.60
67529;DHT22;54366;51.980;5.856;2023-04-25T10:16:17;12.90;48.50
67529;DHT22;54366;51.980;5.856;2023-04-25T10:18:44;12.60;46.80
67529;DHT22;54366;51.980;5.856;2023-04-25T10:21:17;12.40;47.30
67529;DHT22;54366;51.980;5.856;2023-04-25T10:23:52;12.10;47.10
67529;DHT22;54366;51.980;5.856;2023-04-25T10:26:25;11.90;47.50
67529;DHT22;54366;51.980;5.856;2023-04-25T10:29:00;12.00;47.80
67529;DHT22;54366;51.980;5.856;2023-04-25T10:31:33;12.20;48.40
67529;DHT22;54366;51.980;5.856;2023-04-25T10:34:17;12.20;46.70
67529;DHT22;54366;51.980;5.856;2023-04-25T10:36:52;12.20;46.80
67529;DHT22;54366;51.980;5.856;2023-04-25T10:39:27;12.10;46.60
67529;DHT22;54366;51.980;5.856;2023-04-25T10:42:02;12.00;47.50
67529;DHT22;54366;51.980;5.856;2023-04-25T10:44:29;11.80;49.90
67529;DHT22;54366;51.980;5.856;2023-04-25T10:47:02;11.70;50.20
67529;DHT22;54366;51.980;5.856;2023-04-25T10:49:42;11.60;51.20
67529;DHT22;54366;51.980;5.856;2023-04-25T10:52:36;11.60;50.10
67529;DHT22;54366;51.980;5.856;2023-04-25T10:55:10;11.50;47.20
67529;DHT22;54366;51.980;5.856;2023-04-25T10:57:44;11.30;47.00
67529;DHT22;54366;51.980;5.856;2023-04-25T11:00:23;11.20;47.30
67529;DHT22;54366;51.980;5.856;2023-04-25T11:02:59;11.10;48.10
67529;DHT22;54366;51.980;5.856;2023-04-25T11:05:35;11.40;50.50
67529;DHT22;54366;51.980;5.856;2023-04-25T11:08:11;11.90;50.80
67529;DHT22;54366;51.980;5.856;2023-04-25T11:10:47;12.50;50.60
67529;DHT22;54366;51.980;5.856;2023-04-25T11:13:29;13.00;48.00
67529;DHT22;54366;51.980;5.856;2023-04-25T11:16:02;13.30;45.40
67529;DHT22;54366;51.980;5.856;2023-04-25T11:18:29;13.50;45.50
67529;DHT22;54366;51.980;5.856;2023-04-25T11:21:02;13.70;45.20
67529;DHT22;54366;51.980;5.856;2023-04-25T11:23:35;13.80;41.30
67529;DHT22;54366;51.980;5.856;2023-04-25T11:26:08;13.70;41.20
67529;DHT22;54366;51.980;5.856;2023-04-25T11:28:35;13.80;43.30
67529;DHT22;54366;51.980;5.856;2023-04-25T11:31:07;13.90;43.80
67529;DHT22;54366;51.980;5.856;2023-04-25T11:33:41;14.10;42.10
67529;DHT22;54366;51.980;5.856;2023-04-25T11:36:14;14.20;42.10
67529;DHT22;54366;51.980;5.856;2023-04-25T11:38:47;14.30;41.70
67529;DHT22;54366;51.980;5.856;2023-04-25T11:41:20;14.30;42.60
67529;DHT22;54366;51.980;5.856;2023-04-25T11:43:54;14.10;41.70
67529;DHT22;54366;51.980;5.856;2023-04-25T11:46:21;13.70;40.60
67529;DHT22;54366;51.980;5.856;2023-04-25T11:48:56;13.30;41.30
67529;DHT22;54366;51.980;5.856;2023-04-25T11:51:29;13.00;41.50
67529;DHT22;54366;51.980;5.856;2023-04-25T11:54:03;12.70;42.50
67529;DHT22;54366;51.980;5.856;2023-04-25T11:56:41;12.70;42.60
67529;DHT22;54366;51.980;5.856;2023-04-25T11:59:14;12.70;43.50
67529;DHT22;54366;51.980;5.856;2023-04-25T12:01:49;12.90;43.40
67529;DHT22;54366;51.980;5.856;2023-04-25T12:04:24;12.80;42.10
67529;DHT22;54366;51.980;5.856;2023-04-25T12:06:56;12.70;42.10
67529;DHT22;54366;51.980;5.856;2023-04-25T12:09:31;12.50;42.10
67529;DHT22;54366;51.980;5.856;2023-04-25T12:12:11;12.30;45.70
67529;DHT22;54366;51.980;5.856;2023-04-25T12:14:57;12.10;47.80
67529;DHT22;54366;51.980;5.856;2023-04-25T12:17:41;11.70;49.00
67529;DHT22;54366;51.980;5.856;2023-04-25T12:20:10;11.30;50.80
67529;DHT22;54366;51.980;5.856;2023-04-25T12:22:45;11.00;52.20
67529;DHT22;54366;51.980;5.856;2023-04-25T12:25:41;10.70;54.10
67529;DHT22;54366;51.980;5.856;2023-04-25T12:28:17;10.50;55.60
67529;DHT22;54366;51.980;5.856;2023-04-25T12:31:04;10.40;55.10
67529;DHT22;54366;51.980;5.856;2023-04-25T12:33:37;10.30;55.40
67529;DHT22;54366;51.980;5.856;2023-04-25T12:36:11;10.30;56.40
67529;DHT22;54366;51.980;5.856;2023-04-25T12:38:45;10.30;55.40
67529;DHT22;54366;51.980;5.856;2023-04-25T12:41:18;10.40;55.60
67529;DHT22;54366;51.980;5.856;2023-04-25T12:43:45;10.40;54.10
67529;DHT22;54366;51.980;5.856;2023-04-25T12:46:17;10.50;55.20
67529;DHT22;54366;51.980;5.856;2023-04-25T12:48:44;10.70;54.90
67529;DHT22;54366;51.980;5.856;2023-04-25T12:51:16;10.80;53.70
67529;DHT22;54366;51.980;5.856;2023-04-25T12:53:43;11.00;53.50
67529;DHT22;54366;51.980;5.856;2023-04-25T12:56:15;11.10;51.80
67529;DHT22;54366;51.980;5.856;2023-04-25T12:58:48;11.30;50.60
67529;DHT22;54366;51.980;5.856;2023-04-25T13:01:22;11.30;50.60
67529;DHT22;54366;51.980;5.856;2023-04-25T13:03:54;11.50;49.90
67529;DHT22;54366;51.980;5.856;2023-04-25T13:06:22;11.80;49.60
67529;DHT22;54366;51.980;5.856;2023-04-25T13:08:54;11.90;47.80
67529;DHT22;54366;51.980;5.856;2023-04-25T13:11:27;12.10;47.00
67529;DHT22;54366;51.980;5.856;2023-04-25T13:14:00;12.20;48.20
67529;DHT22;54366;51.980;5.856;2023-04-25T13:16:33;12.20;47.70
67529;DHT22;54366;51.980;5.856;2023-04-25T13:19:06;12.30;47.90
67529;DHT22;54366;51.980;5.856;2023-04-25T13:21:43;12.20;47.70
67529;DHT22;54366;51.980;5.856;2023-04-25T13:24:16;12.00;48.10
67529;DHT22;54366;51.980;5.856;2023-04-25T13:26:43;12.00;49.60
67529;DHT22;54366;51.980;5.856;2023-04-25T13:29:16;12.00;50.10
67529;DHT22;54366;51.980;5.856;2023-04-25T13:31:49;12.10;50.90
67529;DHT22;54366;51.980;5.856;2023-04-25T13:34:22;12.30;50.30
67529;DHT22;54366;51.980;5.856;2023-04-25T13:36:55;12.50;46.90
67529;DHT22;54366;51.980;5.856;2023-04-25T13:39:28;12.50;46.90
67529;DHT22;54366;51.980;5.856;2023-04-25T13:41:55;12.40;47.50
67529;DHT22;54366;51.980;5.856;2023-04-25T13:44:28;12.30;46.10
67529;DHT22;54366;51.980;5.856;2023-04-25T13:47:02;12.20;46.20
67529;DHT22;54366;51.980;5.856;2023-04-25T13:49:35;12.10;47.10
67529;DHT22;54366;51.980;5.856;2023-04-25T13:52:08;12.20;45.90
67529;DHT22;54366;51.980;5.856;2023-04-25T13:54:41;12.30;45.40
67529;DHT22;54366;51.980;5.856;2023-04-25T13:57:14;12.30;44.30
67529;DHT22;54366;51.980;5.856;2023-04-25T13:59:41;12.10;44.60
67529;DHT22;54366;51.980;5.856;2023-04-25T14:02:13;12.00;43.50
67529;DHT22;54366;51.980;5.856;2023-04-25T14:04:46;11.90;43.60
67529;DHT22;54366;51.980;5.856;2023-04-25T14:07:19;11.80;42.00
67529;DHT22;54366;51.980;5.856;2023-04-25T14:09:53;11.80;43.00
67529;DHT22;54366;51.980;5.856;2023-04-25T14:12:20;11.90;42.60
67529;DHT22;54366;51.980;5.856;2023-04-25T14:14:59;11.90;44.20
67529;DHT22;54366;51.980;5.856;2023-04-25T14:17:38;11.70;46.00
67529;DHT22;54366;51.980;5.856;2023-04-25T14:20:12;11.60;47.40
67529;DHT22;54366;51.980;5.856;2023-04-25T14:22:45;11.50;48.50
67529;DHT22;54366;51.980;5.856;2023-04-25T14:25:18;11.40;49.20
67529;DHT22;54366;51.980;5.856;2023-04-25T14:27:52;11.50;48.80
67529;DHT22;54366;51.980;5.856;2023-04-25T14:30:19;11.50;49.70
67529;DHT22;54366;51.980;5.856;2023-04-25T14:32:51;11.60;47.60
67529;DHT22;54366;51.980;5.856;2023-04-25T14:35:24;11.60;47.00
67529;DHT22;54366;51.980;5.856;2023-04-25T14:37:57;11.70;47.10
67529;DHT22;54366;51.980;5.856;2023-04-25T14:40:30;11.80;45.40
67529;DHT22;54366;51.980;5.856;2023-04-25T14:43:03;11.90;43.60
67529;DHT22;54366;51.980;5.856;2023-04-25T14:45:36;11.80;42.50
67529;DHT22;54366;51.980;5.856;2023-04-25T14:48:09;11.80;43.20
67529;DHT22;54366;51.980;5.856;2023-04-25T14:50:42;11.80;45.00
67529;DHT22;54366;51.980;5.856;2023-04-25T14:53:15;12.00;43.50
67529;DHT22;54366;51.980;5.856;2023-04-25T14:55:48;12.00;43.10
67529;DHT22;54366;51.980;5.856;2023-04-25T14:58:21;12.00;44.10
67529;DHT22;54366;51.980;5.856;2023-04-25T15:00:48;12.00;44.50
67529;DHT22;54366;51.980;5.856;2023-04-25T15:03:21;12.10;44.60
67529;DHT22;54366;51.980;5.856;2023-04-25T15:05:55;12.10;45.40
67529;DHT22;54366;51.980;5.856;2023-04-25T15:08:22;12.10;46.40
67529;DHT22;54366;51.980;5.856;2023-04-25T15:10:54;12.10;45.00
67529;DHT22;54366;51.980;5.856;2023-04-25T15:13:27;12.00;44.20
67529;DHT22;54366;51.980;5.856;2023-04-25T15:16:07;12.00;44.50
67529;DHT22;54366;51.980;5.856;2023-04-25T15:18:39;11.90;44.20
67529;DHT22;54366;51.980;5.856;2023-04-25T15:21:12;11.80;43.80
67529;DHT22;54366;51.980;5.856;2023-04-25T15:23:39;11.70;43.50
67529;DHT22;54366;51.980;5.856;2023-04-25T15:26:12;11.60;43.80
67529;DHT22;54366;51.980;5.856;2023-04-25T15:28:39;11.50;45.80
67529;DHT22;54366;51.980;5.856;2023-04-25T15:31:11;11.40;47.40
67529;DHT22;54366;51.980;5.856;2023-04-25T15:33:44;11.20;48.60
67529;DHT22;54366;51.980;5.856;2023-04-25T15:36:17;11.10;50.00
67529;DHT22;54366;51.980;5.856;2023-04-25T15:38:50;11.10;51.80
67529;DHT22;54366;51.980;5.856;2023-04-25T15:41:24;11.00;52.10
67529;DHT22;54366;51.980;5.856;2023-04-25T15:43:52;11.00;52.50
67529;DHT22;54366;51.980;5.856;2023-04-25T15:46:24;11.10;53.30
67529;DHT22;54366;51.980;5.856;2023-04-25T15:48:51;11.20;52.60
67529;DHT22;54366;51.980;5.856;2023-04-25T15:51:24;11.40;50.60
67529;DHT22;54366;51.980;5.856;2023-04-25T15:53:58;11.40;50.40
67529;DHT22;54366;51.980;5.856;2023-04-25T15:56:25;11.40;48.90
67529;DHT22;54366;51.980;5.856;2023-04-25T15:58:58;11.40;48.10
67529;DHT22;54366;51.980;5.856;2023-04-25T16:01:25;11.30;46.30
67529;DHT22;54366;51.980;5.856;2023-04-25T16:04:01;11.40;45.30
67529;DHT22;54366;51.980;5.856;2023-04-25T16:06:34;11.30;45.20
67529;DHT22;54366;51.980;5.856;2023-04-25T16:09:07;11.20;46.90
67529;DHT22;54366;51.980;5.856;2023-04-25T16:11:35;11.20;47.20
67529;DHT22;54366;51.980;5.856;2023-04-25T16:14:07;11.30;48.30
67529;DHT22;54366;51.980;5.856;2023-04-25T16:16:40;11.30;48.30
67529;DHT22;54366;51.980;5.856;2023-04-25T16:19:20;11.40;48.10
67529;DHT22;54366;51.980;5.856;2023-04-25T16:21:47;11.40;47.00
67529;DHT22;54366;51.980;5.856;2023-04-25T16:24:19;11.40;43.40
67529;DHT22;54366;51.980;5.856;2023-04-25T16:26:52;11.30;43.30
67529;DHT22;54366;51.980;5.856;2023-04-25T16:29:25;11.20;44.50
67529;DHT22;54366;51.980;5.856;2023-04-25T16:31:58;11.10;44.60
67529;DHT22;54366;51.980;5.856;2023-04-25T16:34:31;11.20;44.30